Buckley, Illinois
Current Conditions -  °F | °C
As of 3:30 AM on Monday 24 Nov 2014 (Local Time) from KTIP Reporting Station
Drizzle Drizzle  
Wind Chill: 53°   Ceiling: 300
Heat Index: 53°   Visibility: 2mi
Dew Point: 52°   Wind: 6mph
Humidity: 98%   Direction: 210°SSW
Pressure: 29.13"   Gusts: NA
Location:  40.6°N, 88.04°W
Report Text: KTIP 240930Z AUTO 21005KT 2SM +DZ OVC003 12/11 A2913 RMK AO2 T01160113
Loading
Personal Weather Stations






























Interactive Weather Map New forecast layout! Learn more

10-Day Weather Forecast

Advertisements
Track Severe Weather on mobile